Time;durP1;ratioP1;P1;durP2;ratioP2;P2;SDS_P1;SDS_P2;PMS_P1;PMS_P2;Temp;Humidity;BMP_temperature;BMP_pressure;BME280_temperature;BME280_humidity;BME280_pressure;Samples;Min_cycle;Max_cycle;Signal;HPM_P1;HPM_P2
2021/10/25 00:03:04;;;;;;;11.43;8.90;;;;;;;;;;10446373;28;20029;-82
2021/10/25 00:08:04;;;;;;;16.63;10.23;;;;;;;;;;10464694;28;20040;-81
2021/10/25 00:13:05;;;;;;;10.60;7.80;;;;;;;;;;10465676;28;20036;-81
2021/10/25 00:18:05;;;;;;;14.70;8.20;;;;;;;;;;10464222;28;20025;-81
2021/10/25 00:23:06;;;;;;;17.42;9.38;;;;;;;;;;10464286;28;20120;-81
2021/10/25 00:28:06;;;;;;;11.70;8.80;;;;;;;;;;10462619;28;20409;-81
2021/10/25 00:33:07;;;;;;;8.80;7.78;;;;;;;;;;10463271;28;20454;-81
2021/10/25 00:38:07;;;;;;;8.23;7.47;;;;;;;;;;10462991;28;20124;-81
2021/10/25 00:43:08;;;;;;;12.90;8.85;;;;;;;;;;10460730;28;20029;-82
2021/10/25 00:48:08;;;;;;;11.03;7.60;;;;;;;;;;10461758;28;20055;-81
2021/10/25 00:53:09;;;;;;;9.32;8.40;;;;;;;;;;10461798;28;20313;-81
2021/10/25 00:58:09;;;;;;;9.98;9.00;;;;;;;;;;10461905;28;20017;-82
2021/10/25 01:03:09;;;;;;;8.68;7.78;;;;;;;;;;10444847;28;20040;-81
2021/10/25 01:08:09;;;;;;;8.77;7.10;;;;;;;;;;10444430;28;20032;-82
2021/10/25 01:13:10;;;;;;;10.80;8.07;;;;;;;;;;10461749;28;20525;-81
2021/10/25 01:18:10;;;;;;;12.25;7.47;;;;;;;;;;10425983;28;20029;-81
2021/10/25 01:23:11;;;;;;;9.27;8.48;;;;;;;;;;10461134;28;20047;-81
2021/10/25 01:28:11;;;;;;;16.43;9.80;;;;;;;;;;10461181;28;20143;-81
2021/10/25 01:33:15;;;;;;;14.10;9.48;;;;;;;;;;10462104;28;20333;-81
2021/10/25 01:38:15;;;;;;;10.05;8.98;;;;;;;;;;10461894;28;20021;-81
2021/10/25 01:43:15;;;;;;;7.43;6.70;;;;;;;;;;10442184;28;20037;-81
2021/10/25 01:48:16;;;;;;;9.55;7.93;;;;;;;;;;10458520;28;20397;-81
2021/10/25 01:53:16;;;;;;;10.32;7.72;;;;;;;;;;10458415;28;20040;-81
2021/10/25 01:58:16;;;;;;;8.52;7.70;;;;;;;;;;10439752;28;20388;-81
2021/10/25 02:03:16;;;;;;;11.98;8.50;;;;;;;;;;10458849;28;20477;-81
2021/10/25 02:08:16;;;;;;;9.32;7.90;;;;;;;;;;10458027;28;20036;-81
2021/10/25 02:13:17;;;;;;;9.07;7.65;;;;;;;;;;10440092;28;20480;-81
2021/10/25 02:18:17;;;;;;;13.15;7.63;;;;;;;;;;10457972;28;20020;-81
2021/10/25 02:23:17;;;;;;;8.95;8.07;;;;;;;;;;10458043;28;20065;-81
2021/10/25 02:28:17;;;;;;;9.15;6.97;;;;;;;;;;10440614;28;20524;-81
2021/10/25 02:33:18;;;;;;;8.88;7.53;;;;;;;;;;10457320;28;20064;-81
2021/10/25 02:38:18;;;;;;;8.35;7.63;;;;;;;;;;10460093;28;20052;-81
2021/10/25 02:43:19;;;;;;;11.90;7.47;;;;;;;;;;10458070;28;20029;-81
2021/10/25 02:48:20;;;;;;;8.75;7.90;;;;;;;;;;10440060;28;20029;-81
2021/10/25 02:53:20;;;;;;;10.30;8.98;;;;;;;;;;10458685;28;20388;-81
2021/10/25 02:58:20;;;;;;;12.75;9.20;;;;;;;;;;10424080;28;20033;-80
2021/10/25 03:03:21;;;;;;;9.95;8.90;;;;;;;;;;10457826;28;20036;-80
2021/10/25 03:08:22;;;;;;;25.55;11.80;;;;;;;;;;10463218;28;20366;-80
2021/10/25 03:13:23;;;;;;;12.20;9.30;;;;;;;;;;10464822;28;20036;-81
2021/10/25 03:18:24;;;;;;;10.05;8.95;;;;;;;;;;10464745;28;20036;-80
2021/10/25 03:23:24;;;;;;;13.40;9.90;;;;;;;;;;10464230;28;20495;-80
2021/10/25 03:28:24;;;;;;;12.05;9.40;;;;;;;;;;10445702;28;20087;-80
2021/10/25 03:33:25;;;;;;;10.30;9.25;;;;;;;;;;10463832;28;20131;-81
2021/10/25 03:38:25;;;;;;;22.90;10.73;;;;;;;;;;10445795;28;20047;-81
2021/10/25 03:43:29;;;;;;;25.17;10.43;;;;;;;;;;10464920;28;20310;-81
2021/10/25 03:48:37;;;;;;;16.45;11.68;;;;;;;;;;10465628;28;20152;-81
2021/10/25 03:59:07;;;;;;;12.88;11.60;;;;;;;;;;10462311;28;20033;-80
2021/10/25 04:30:57;;;;;;;19.45;16.25;;;;;;;;;;10462860;28;20029;-80
2021/10/25 04:35:58;;;;;;;25.25;15.60;;;;;;;;;;10463084;28;20021;-81
2021/10/25 04:40:58;;;;;;;27.92;15.25;;;;;;;;;;10461679;28;20477;-80
2021/10/25 04:45:58;;;;;;;22.95;15.00;;;;;;;;;;10413304;28;20045;-79
2021/10/25 04:50:58;;;;;;;28.88;18.70;;;;;;;;;;10465315;28;20025;-77
2021/10/25 04:55:59;;;;;;;22.33;17.52;;;;;;;;;;10464264;28;20036;-76
2021/10/25 05:00:59;;;;;;;28.83;18.45;;;;;;;;;;10478240;28;20029;-77
2021/10/25 05:05:59;;;;;;;21.23;19.02;;;;;;;;;;10492951;28;20477;-78
2021/10/25 05:10:59;;;;;;;25.48;20.02;;;;;;;;;;10474431;28;20035;-82
2021/10/25 05:16:00;;;;;;;28.73;21.00;;;;;;;;;;10468124;28;20025;-81
2021/10/25 05:21:00;;;;;;;23.95;21.35;;;;;;;;;;10462600;28;20385;-83
2021/10/25 05:26:00;;;;;;;23.70;20.00;;;;;;;;;;10457778;28;20053;-83
2021/10/25 05:31:00;;;;;;;27.88;20.05;;;;;;;;;;10443227;28;20041;-83
2021/10/25 05:36:02;;;;;;;26.10;22.58;;;;;;;;;;10461499;28;20124;-82
2021/10/25 05:41:02;;;;;;;22.25;19.80;;;;;;;;;;10459252;28;20029;-83
2021/10/25 05:46:02;;;;;;;23.10;16.48;;;;;;;;;;10424901;28;20055;-83
2021/10/25 05:51:03;;;;;;;23.58;19.02;;;;;;;;;;10459556;28;20441;-83
2021/10/25 05:56:04;;;;;;;23.20;17.17;;;;;;;;;;10459793;28;20021;-83
2021/10/25 06:01:08;;;;;;;31.83;19.67;;;;;;;;;;10461162;28;20033;-84
2021/10/25 06:06:08;;;;;;;20.27;17.23;;;;;;;;;;10458426;28;20093;-84
2021/10/25 06:11:09;;;;;;;17.70;15.93;;;;;;;;;;10457985;28;20108;-82
2021/10/25 06:21:09;;;;;;;22.65;16.23;;;;;;;;;;10459804;28;20116;-83
2021/10/25 06:26:09;;;;;;;19.08;17.08;;;;;;;;;;10458259;28;20389;-83
2021/10/25 06:31:10;;;;;;;18.35;16.15;;;;;;;;;;10458167;28;20104;-83
2021/10/25 06:36:11;;;;;;;14.85;13.32;;;;;;;;;;10458744;28;20039;-84
2021/10/25 06:41:11;;;;;;;19.27;15.02;;;;;;;;;;10458232;28;20041;-84
2021/10/25 06:46:11;;;;;;;17.02;15.32;;;;;;;;;;10440610;28;20036;-84
2021/10/25 06:51:12;;;;;;;18.10;14.93;;;;;;;;;;10457823;28;20055;-84
2021/10/25 06:56:12;;;;;;;14.90;13.18;;;;;;;;;;10440761;28;20354;-85
2021/10/25 07:01:12;;;;;;;14.52;12.35;;;;;;;;;;10458587;28;20127;-86
2021/10/25 07:06:17;;;;;;;13.65;11.40;;;;;;;;;;10459252;28;20033;-87
2021/10/25 07:11:18;;;;;;;14.73;12.85;;;;;;;;;;10457609;28;20040;-86
2021/10/25 07:16:23;;;;;;;16.35;12.63;;;;;;;;;;10459669;28;20017;-88
2021/10/25 09:05:37;;;;;;;32.58;25.50;;;;;;;;;;10491119;28;20358;-73
2021/10/25 09:10:39;;;;;;;30.35;24.90;;;;;;;;;;10473026;28;20032;-74
2021/10/25 09:15:40;;;;;;;33.50;24.63;;;;;;;;;;10490846;28;20024;-74
2021/10/25 09:20:44;;;;;;;28.45;22.92;;;;;;;;;;10489098;28;20108;-72
2021/10/25 09:25:44;;;;;;;28.52;22.20;;;;;;;;;;10488751;28;20054;-73
2021/10/25 09:30:45;;;;;;;25.52;22.52;;;;;;;;;;10490506;28;20123;-73
2021/10/25 09:35:48;;;;;;;31.02;21.48;;;;;;;;;;10489601;28;20027;-73
2021/10/25 09:41:27;;;;;;;27.33;22.90;;;;;;;;;;10487647;28;20036;-74
2021/10/25 09:51:35;;;;;;;25.17;21.27;;;;;;;;;;10484470;28;20144;-74
2021/10/25 09:56:43;;;;;;;27.27;20.65;;;;;;;;;;10483893;28;20116;-73
2021/10/25 10:01:44;;;;;;;27.63;19.85;;;;;;;;;;10483169;28;20060;-73
2021/10/25 10:06:45;;;;;;;22.70;19.90;;;;;;;;;;10456239;28;20043;-74
2021/10/25 10:11:45;;;;;;;32.40;19.42;;;;;;;;;;10440063;28;20033;-73
2021/10/25 10:16:46;;;;;;;23.02;18.92;;;;;;;;;;10458765;28;20045;-75
2021/10/25 10:21:46;;;;;;;29.75;21.42;;;;;;;;;;10459457;28;20021;-73
2021/10/25 10:26:53;;;;;;;25.55;18.75;;;;;;;;;;10459935;28;20036;-74
2021/10/25 10:32:00;;;;;;;28.15;20.48;;;;;;;;;;10460304;28;20358;-74
2021/10/25 10:37:00;;;;;;;35.17;20.55;;;;;;;;;;10459116;28;20029;-74
2021/10/25 10:42:05;;;;;;;41.85;21.48;;;;;;;;;;10458119;28;20040;-73
2021/10/25 10:47:12;;;;;;;30.02;20.77;;;;;;;;;;10458650;28;20116;-75
2021/10/25 10:52:41;;;;;;;29.63;21.23;;;;;;;;;;10458270;28;20051;-74
2021/10/25 11:02:57;;;;;;;32.88;22.60;;;;;;;;;;10463883;28;20466;-74
2021/10/25 11:08:04;;;;;;;27.45;21.50;;;;;;;;;;10459656;28;20056;-74
2021/10/25 11:13:06;;;;;;;30.38;20.25;;;;;;;;;;10459046;28;20017;-74
2021/10/25 11:18:06;;;;;;;28.20;20.42;;;;;;;;;;10456160;28;20036;-74
2021/10/25 11:23:07;;;;;;;31.67;21.98;;;;;;;;;;10458546;28;20040;-75
2021/10/25 11:28:19;;;;;;;26.67;19.77;;;;;;;;;;10457604;28;20427;-73
2021/10/25 11:33:20;;;;;;;30.17;21.55;;;;;;;;;;10457966;28;20150;-74
2021/10/25 11:38:20;;;;;;;32.92;22.48;;;;;;;;;;10456875;28;20171;-74
2021/10/25 11:43:29;;;;;;;35.63;22.08;;;;;;;;;;10457143;28;20391;-74
2021/10/25 11:48:30;;;;;;;29.67;21.85;;;;;;;;;;10455992;28;20025;-75
2021/10/25 11:53:30;;;;;;;31.40;22.80;;;;;;;;;;10456779;28;20029;-74
2021/10/25 11:58:31;;;;;;;31.60;22.05;;;;;;;;;;10456405;28;20067;-76
2021/10/25 12:03:31;;;;;;;27.42;21.80;;;;;;;;;;10457140;28;20068;-75
2021/10/25 12:08:31;;;;;;;36.72;22.30;;;;;;;;;;10455575;28;20037;-75
2021/10/25 12:13:31;;;;;;;32.28;23.45;;;;;;;;;;10456655;28;20039;-74
2021/10/25 12:18:31;;;;;;;30.10;23.05;;;;;;;;;;10455995;28;20036;-75
2021/10/25 12:23:32;;;;;;;40.67;26.42;;;;;;;;;;10456094;28;20029;-76
2021/10/25 12:28:35;;;;;;;35.90;21.67;;;;;;;;;;10437859;28;20162;-76
2021/10/25 12:33:38;;;;;;;32.03;22.58;;;;;;;;;;10454493;28;20470;-75
2021/10/25 12:38:44;;;;;;;30.85;23.67;;;;;;;;;;10454762;28;20025;-76
2021/10/25 12:43:45;;;;;;;41.20;23.42;;;;;;;;;;10455876;28;20116;-76
2021/10/25 12:48:47;;;;;;;37.25;23.25;;;;;;;;;;10455893;28;20033;-75
2021/10/25 12:53:48;;;;;;;39.05;26.40;;;;;;;;;;10455688;28;20052;-76
2021/10/25 12:58:57;;;;;;;31.77;21.77;;;;;;;;;;10453849;28;20462;-77
2021/10/25 13:03:57;;;;;;;35.50;20.75;;;;;;;;;;10456081;28;20045;-75
2021/10/25 13:09:06;;;;;;;26.95;21.38;;;;;;;;;;10455699;28;20029;-76
2021/10/25 13:14:06;;;;;;;27.55;22.10;;;;;;;;;;10468877;28;20100;-75
2021/10/25 13:19:07;;;;;;;35.35;21.15;;;;;;;;;;10464520;28;20065;-76
2021/10/25 13:24:08;;;;;;;25.65;20.80;;;;;;;;;;10456924;28;20036;-76
2021/10/25 13:29:08;;;;;;;25.52;19.90;;;;;;;;;;10454170;28;20033;-75
2021/10/25 13:34:09;;;;;;;32.00;21.52;;;;;;;;;;10454485;28;20378;-75
2021/10/25 13:39:09;;;;;;;27.92;18.35;;;;;;;;;;10458191;28;20029;-76
2021/10/25 13:44:09;;;;;;;22.58;18.33;;;;;;;;;;10462174;28;20052;-76
2021/10/25 13:49:10;;;;;;;24.23;19.38;;;;;;;;;;10462029;28;20055;-76
2021/10/25 13:54:10;;;;;;;32.78;17.95;;;;;;;;;;10461894;28;20055;-77
2021/10/25 13:59:11;;;;;;;28.15;17.20;;;;;;;;;;10461195;28;20060;-76
2021/10/25 14:04:15;;;;;;;27.48;17.77;;;;;;;;;;10461863;28;20064;-77
2021/10/25 14:09:16;;;;;;;30.30;16.48;;;;;;;;;;10461155;28;20044;-76
2021/10/25 14:14:18;;;;;;;18.40;14.95;;;;;;;;;;10459991;28;20390;-76
2021/10/25 14:19:23;;;;;;;27.35;17.30;;;;;;;;;;10459458;28;20087;-75
2021/10/25 14:24:23;;;;;;;20.52;15.80;;;;;;;;;;10460669;28;20025;-76
2021/10/25 14:29:24;;;;;;;18.13;14.88;;;;;;;;;;10460320;28;20404;-77
2021/10/25 14:34:24;;;;;;;22.07;14.87;;;;;;;;;;10459825;28;20040;-75
2021/10/25 14:39:34;;;;;;;16.35;13.68;;;;;;;;;;10460509;28;20815;-76
2021/10/25 14:55:04;;;;;;;18.00;13.30;;;;;;;;;;10459686;28;20069;-77
2021/10/25 15:00:04;;;;;;;23.30;15.20;;;;;;;;;;10459173;28;20099;-76
2021/10/25 15:05:12;;;;;;;21.27;17.02;;;;;;;;;;10458770;28;20075;-78
2021/10/25 15:10:12;;;;;;;20.60;15.45;;;;;;;;;;10459006;28;20029;-77
2021/10/25 15:15:12;;;;;;;19.23;13.63;;;;;;;;;;10441274;28;20024;-76
2021/10/25 15:20:13;;;;;;;13.32;11.80;;;;;;;;;;10458794;28;20416;-77
2021/10/25 15:25:15;;;;;;;16.60;14.63;;;;;;;;;;10460636;28;20378;-78
2021/10/25 15:30:16;;;;;;;13.73;12.27;;;;;;;;;;10471876;28;20028;-77
2021/10/25 15:35:16;;;;;;;18.27;13.27;;;;;;;;;;10475217;28;20027;-77
2021/10/25 15:40:18;;;;;;;13.53;12.07;;;;;;;;;;10457109;28;20029;-76
2021/10/25 15:45:18;;;;;;;21.02;11.70;;;;;;;;;;10457844;28;20309;-76
2021/10/25 15:50:19;;;;;;;27.70;13.43;;;;;;;;;;10457802;28;20055;-77
2021/10/25 15:55:19;;;;;;;15.25;12.77;;;;;;;;;;10455822;28;20036;-77
2021/10/25 16:00:19;;;;;;;16.88;12.73;;;;;;;;;;10456445;28;20029;-77
2021/10/25 16:05:21;;;;;;;15.83;12.17;;;;;;;;;;10455524;28;20049;-78
2021/10/25 16:10:22;;;;;;;23.10;13.60;;;;;;;;;;10456642;28;20258;-76
2021/10/25 16:15:22;;;;;;;14.20;11.38;;;;;;;;;;10456781;28;20040;-78
2021/10/25 16:20:22;;;;;;;18.45;13.75;;;;;;;;;;10456595;28;20029;-78
2021/10/25 16:25:22;;;;;;;15.75;14.10;;;;;;;;;;10455628;28;20466;-78
2021/10/25 16:30:23;;;;;;;21.15;15.55;;;;;;;;;;10455658;28;20029;-75
2021/10/25 16:35:23;;;;;;;18.88;14.18;;;;;;;;;;10454626;28;20101;-76
2021/10/25 16:40:23;;;;;;;30.30;15.80;;;;;;;;;;10456114;28;20024;-77
2021/10/25 16:45:26;;;;;;;24.83;17.23;;;;;;;;;;10456629;28;20056;-78
2021/10/25 16:50:29;;;;;;;20.52;18.40;;;;;;;;;;10455905;28;20174;-77
2021/10/25 16:55:50;;;;;;;30.50;19.33;;;;;;;;;;10453980;28;20064;-76
2021/10/25 17:11:12;;;;;;;26.05;20.33;;;;;;;;;;10455961;28;20082;-78
2021/10/25 17:16:12;;;;;;;30.38;20.38;;;;;;;;;;10462453;28;20089;-77
2021/10/25 17:21:14;;;;;;;32.42;19.80;;;;;;;;;;10463668;28;20045;-77
2021/10/25 17:26:15;;;;;;;26.80;19.73;;;;;;;;;;10463688;28;20029;-77
2021/10/25 17:31:15;;;;;;;36.58;19.77;;;;;;;;;;10464019;28;20112;-76
2021/10/25 17:36:15;;;;;;;28.60;18.77;;;;;;;;;;10463145;28;20469;-77
2021/10/25 17:41:18;;;;;;;29.25;19.27;;;;;;;;;;10463053;28;20426;-76
2021/10/25 17:46:19;;;;;;;29.65;22.13;;;;;;;;;;10463944;28;20033;-76
2021/10/25 17:51:19;;;;;;;29.20;20.75;;;;;;;;;;10445757;28;20381;-78
2021/10/25 17:56:19;;;;;;;34.85;24.95;;;;;;;;;;10462482;28;20029;-78
2021/10/25 18:01:20;;;;;;;47.08;27.00;;;;;;;;;;10460466;28;20029;-77
2021/10/25 18:06:20;;;;;;;34.58;23.63;;;;;;;;;;10461266;28;20025;-78
2021/10/25 18:11:20;;;;;;;34.45;24.85;;;;;;;;;;10460825;28;20146;-77
2021/10/25 18:16:20;;;;;;;35.63;24.10;;;;;;;;;;10459562;28;20020;-79
2021/10/25 18:21:21;;;;;;;35.78;22.88;;;;;;;;;;10460620;28;20115;-77
2021/10/25 18:26:21;;;;;;;38.88;25.23;;;;;;;;;;10458130;28;20449;-76
2021/10/25 18:31:22;;;;;;;30.42;23.35;;;;;;;;;;10460434;28;20025;-77
2021/10/25 18:36:22;;;;;;;31.23;22.92;;;;;;;;;;10459955;28;20044;-76
2021/10/25 18:41:29;;;;;;;29.23;23.83;;;;;;;;;;10459419;28;20029;-78
2021/10/25 18:46:29;;;;;;;34.75;26.52;;;;;;;;;;10461502;28;20100;-79
2021/10/25 18:51:29;;;;;;;44.28;25.77;;;;;;;;;;10458151;28;20119;-76
2021/10/25 18:56:30;;;;;;;32.28;22.35;;;;;;;;;;10458979;28;20078;-79
2021/10/25 19:01:31;;;;;;;31.88;23.88;;;;;;;;;;10450975;28;20294;-76
2021/10/25 19:06:32;;;;;;;37.05;23.80;;;;;;;;;;10457564;28;20025;-79
2021/10/25 19:11:32;;;;;;;32.80;23.63;;;;;;;;;;10458407;28;20036;-77
2021/10/25 19:16:36;;;;;;;31.92;21.98;;;;;;;;;;10463090;28;20083;-79
2021/10/25 19:21:41;;;;;;;28.05;23.08;;;;;;;;;;10458406;28;20051;-79
2021/10/25 19:26:41;;;;;;;30.48;24.17;;;;;;;;;;10458424;28;20391;-80
2021/10/25 19:31:42;;;;;;;27.30;23.63;;;;;;;;;;10458549;28;20029;-80
2021/10/25 19:36:43;;;;;;;28.50;22.02;;;;;;;;;;10455208;28;20031;-77
2021/10/25 19:41:43;;;;;;;26.45;20.25;;;;;;;;;;10457087;28;20113;-78
2021/10/25 19:46:44;;;;;;;28.80;20.02;;;;;;;;;;10456611;28;20112;-77
2021/10/25 19:51:44;;;;;;;31.00;19.75;;;;;;;;;;10453903;28;20412;-79
2021/10/25 19:56:44;;;;;;;28.70;22.45;;;;;;;;;;10460855;28;20028;-79
2021/10/25 20:01:45;;;;;;;24.60;19.13;;;;;;;;;;10445589;28;20136;-78
2021/10/25 20:06:45;;;;;;;33.08;21.10;;;;;;;;;;10460123;28;20037;-77
2021/10/25 20:11:45;;;;;;;26.05;20.15;;;;;;;;;;10455530;28;20017;-78
2021/10/25 20:16:45;;;;;;;32.10;21.27;;;;;;;;;;10456486;28;20120;-77
2021/10/25 20:21:46;;;;;;;29.73;21.15;;;;;;;;;;10456591;28;20024;-77
2021/10/25 20:26:46;;;;;;;22.73;19.42;;;;;;;;;;10455821;28;20361;-78
2021/10/25 20:31:46;;;;;;;30.05;21.58;;;;;;;;;;10457841;28;20496;-78
2021/10/25 20:36:46;;;;;;;32.03;20.98;;;;;;;;;;10438312;28;20086;-77
2021/10/25 20:41:46;;;;;;;30.48;20.65;;;;;;;;;;10455593;28;20025;-78
2021/10/25 20:46:47;;;;;;;33.78;21.00;;;;;;;;;;10454482;28;20086;-79
2021/10/25 20:51:47;;;;;;;32.13;17.02;;;;;;;;;;10455971;28;20056;-77
2021/10/25 20:56:47;;;;;;;27.92;19.45;;;;;;;;;;10455533;28;20028;-76
2021/10/25 21:01:47;;;;;;;32.15;18.38;;;;;;;;;;10453701;28;20083;-77
2021/10/25 21:06:48;;;;;;;26.77;18.13;;;;;;;;;;10455071;28;20025;-77
2021/10/25 21:11:48;;;;;;;24.55;16.92;;;;;;;;;;10454099;28;20051;-77
2021/10/25 21:16:49;;;;;;;34.38;19.95;;;;;;;;;;10453759;28;20033;-76
2021/10/25 21:21:49;;;;;;;20.40;18.15;;;;;;;;;;10455109;28;20167;-77
2021/10/25 21:26:49;;;;;;;37.63;17.40;;;;;;;;;;10436394;28;20469;-77
2021/10/25 21:31:49;;;;;;;38.63;18.95;;;;;;;;;;10454420;28;20270;-78
2021/10/25 21:36:50;;;;;;;30.70;17.13;;;;;;;;;;10454470;28;20081;-78
2021/10/25 21:41:50;;;;;;;28.75;18.35;;;;;;;;;;10454277;28;20286;-77
2021/10/25 21:46:51;;;;;;;20.88;16.45;;;;;;;;;;10454311;28;20021;-78
2021/10/25 21:51:51;;;;;;;26.75;17.65;;;;;;;;;;10454541;28;20104;-77
2021/10/25 21:56:52;;;;;;;20.38;14.27;;;;;;;;;;10453191;28;20107;-79
2021/10/25 22:01:53;;;;;;;18.13;14.70;;;;;;;;;;10459672;28;20060;-78
2021/10/25 22:06:54;;;;;;;23.35;17.52;;;;;;;;;;10461340;28;20028;-77
2021/10/25 22:11:54;;;;;;;22.42;15.52;;;;;;;;;;10460292;28;20025;-79
2021/10/25 22:16:54;;;;;;;22.65;16.48;;;;;;;;;;10460086;28;20021;-77
2021/10/25 22:21:54;;;;;;;23.40;15.67;;;;;;;;;;10460844;28;20029;-78
2021/10/25 22:26:55;;;;;;;24.65;17.60;;;;;;;;;;10460298;28;20306;-78
2021/10/25 22:31:55;;;;;;;31.90;15.38;;;;;;;;;;10460333;28;20456;-78
2021/10/25 22:36:55;;;;;;;19.35;12.93;;;;;;;;;;10460275;28;20032;-77
2021/10/25 22:41:55;;;;;;;23.42;17.25;;;;;;;;;;10460090;28;20033;-78
2021/10/25 22:46:57;;;;;;;20.00;14.70;;;;;;;;;;10459974;28;20033;-77
2021/10/25 22:51:57;;;;;;;25.30;16.13;;;;;;;;;;10459809;28;20480;-75
2021/10/25 22:56:57;;;;;;;29.83;17.75;;;;;;;;;;10458962;28;20195;-78
2021/10/25 23:01:57;;;;;;;19.83;15.02;;;;;;;;;;10459480;28;20140;-78
2021/10/25 23:06:57;;;;;;;23.15;15.15;;;;;;;;;;10458252;28;20034;-78
2021/10/25 23:11:58;;;;;;;23.23;14.77;;;;;;;;;;10458802;28;20039;-77
2021/10/25 23:16:58;;;;;;;29.33;14.43;;;;;;;;;;10457754;28;20425;-78
2021/10/25 23:21:59;;;;;;;17.45;13.82;;;;;;;;;;10458608;28;20119;-77
2021/10/25 23:26:59;;;;;;;33.67;16.70;;;;;;;;;;10458332;28;20040;-77
2021/10/25 23:31:59;;;;;;;25.30;16.92;;;;;;;;;;10457578;28;20033;-78
2021/10/25 23:37:00;;;;;;;33.88;15.40;;;;;;;;;;10458250;28;20427;-79
2021/10/25 23:42:00;;;;;;;18.90;13.25;;;;;;;;;;10457751;28;20081;-77
2021/10/25 23:47:00;;;;;;;19.42;15.50;;;;;;;;;;10457713;28;20059;-76
2021/10/25 23:52:01;;;;;;;24.27;14.63;;;;;;;;;;10457473;28;20032;-78
2021/10/25 23:57:01;;;;;;;34.67;15.48;;;;;;;;;;10455557;28;20060;-78
